createdAt,value
2018-07-22T00:00:34.693Z,20.42
2018-07-22T00:01:34.670Z,20.56
2018-07-22T00:02:34.674Z,20.55
2018-07-22T00:03:34.643Z,20.36
2018-07-22T00:04:34.632Z,20.52
2018-07-22T00:05:34.618Z,20.50
2018-07-22T00:06:34.607Z,20.39
2018-07-22T00:07:34.592Z,20.44
2018-07-22T00:08:34.587Z,20.53
2018-07-22T00:09:34.567Z,20.52
2018-07-22T00:10:34.554Z,20.42
2018-07-22T00:11:34.540Z,20.46
2018-07-22T00:12:34.525Z,20.39
2018-07-22T00:13:34.512Z,20.46
2018-07-22T00:14:34.501Z,20.44
2018-07-22T00:15:34.490Z,20.44
2018-07-22T00:16:34.530Z,20.40
2018-07-22T00:17:34.459Z,20.39
2018-07-22T00:18:34.447Z,20.52
2018-07-22T00:19:34.431Z,20.53
2018-07-22T00:20:34.422Z,20.39
2018-07-22T00:21:34.406Z,20.49
2018-07-22T00:22:34.393Z,20.37
2018-07-22T00:23:34.379Z,20.27
2018-07-22T00:24:34.374Z,20.34
2018-07-22T00:25:34.354Z,20.33
2018-07-22T00:26:34.338Z,20.32
2018-07-22T00:27:34.332Z,20.29
2018-07-22T00:28:34.312Z,20.24
2018-07-22T00:29:34.298Z,20.24
2018-07-22T00:30:34.286Z,20.22
2018-07-22T00:31:34.275Z,20.19
2018-07-22T00:32:34.261Z,20.17
2018-07-22T00:33:34.245Z,20.18
2018-07-22T00:34:34.238Z,20.24
2018-07-22T00:35:34.218Z,20.18
2018-07-22T00:36:34.205Z,20.21
2018-07-22T00:37:34.194Z,20.19
2018-07-22T00:38:34.188Z,20.17
2018-07-22T00:39:34.165Z,20.21
2018-07-22T00:40:34.152Z,20.24
2018-07-22T00:41:34.142Z,20.29
2018-07-22T00:42:34.126Z,20.29
2018-07-22T00:43:34.110Z,20.21
2018-07-22T00:44:34.099Z,20.22
2018-07-22T00:45:34.086Z,20.26
2018-07-22T00:46:34.071Z,20.15
2018-07-22T00:47:34.057Z,20.21
2018-07-22T00:48:34.043Z,20.17
2018-07-22T00:49:34.033Z,20.21
2018-07-22T00:50:34.017Z,20.17
2018-07-22T00:51:34.001Z,20.17
2018-07-22T00:52:33.989Z,20.04
2018-07-22T00:53:33.975Z,20.14
2018-07-22T00:54:33.962Z,20.07
2018-07-22T00:55:33.948Z,20.02
2018-07-22T00:56:33.935Z,20.10
2018-07-22T00:57:33.921Z,20.21
2018-07-22T00:58:33.906Z,20.17
2018-07-22T00:59:33.892Z,20.26
2018-07-22T01:00:33.886Z,20.22
2018-07-22T01:01:33.868Z,20.24
2018-07-22T01:02:33.853Z,20.27
2018-07-22T01:03:33.838Z,20.22
2018-07-22T01:04:33.827Z,20.24
2018-07-22T01:05:33.811Z,20.26
2018-07-22T01:06:33.806Z,20.19
2018-07-22T01:07:33.785Z,20.14
2018-07-22T01:08:33.774Z,20.17
2018-07-22T01:09:33.762Z,20.19
2018-07-22T01:10:33.748Z,20.08
2018-07-22T01:11:33.730Z,20.17
2018-07-22T01:12:33.719Z,20.19
2018-07-22T01:13:33.703Z,20.22
2018-07-22T01:14:33.693Z,20.18
2018-07-22T01:15:33.676Z,20.19
2018-07-22T01:16:33.663Z,20.19
2018-07-22T01:17:33.663Z,20.17
2018-07-22T01:18:33.636Z,20.11
2018-07-22T01:19:33.624Z,20.14
2018-07-22T01:20:33.607Z,20.12
2018-07-22T01:21:33.601Z,20.15
2018-07-22T01:22:33.580Z,20.11
2018-07-22T01:23:33.569Z,20.00
2018-07-22T01:24:33.553Z,20.07
2018-07-22T01:25:33.540Z,20.07
2018-07-22T01:26:33.525Z,20.08
2018-07-22T01:27:33.512Z,20.04
2018-07-22T01:28:33.497Z,20.08
2018-07-22T01:29:33.483Z,20.07
2018-07-22T01:30:33.471Z,20.00
2018-07-22T01:31:33.457Z,20.00
2018-07-22T01:32:33.442Z,20.03
2018-07-22T01:33:33.430Z,19.94
2018-07-22T01:34:33.421Z,20.00
2018-07-22T01:35:33.400Z,19.96
2018-07-22T01:36:33.518Z,19.93
2018-07-22T01:37:33.377Z,19.90
2018-07-22T01:38:33.361Z,19.96
2018-07-22T01:39:33.347Z,19.90
2018-07-22T01:40:33.335Z,19.82
2018-07-22T01:41:33.320Z,19.92
2018-07-22T01:42:33.315Z,19.93
2018-07-22T01:43:33.305Z,19.94
2018-07-22T01:44:33.280Z,19.92
2018-07-22T01:45:33.265Z,19.96
2018-07-22T01:46:33.256Z,19.99
2018-07-22T01:47:33.261Z,19.94
2018-07-22T01:48:33.222Z,19.92
2018-07-22T01:49:33.212Z,19.93
2018-07-22T01:50:33.196Z,19.93
2018-07-22T01:51:33.185Z,19.82
2018-07-22T01:52:33.168Z,19.85
2018-07-22T01:53:33.158Z,19.70
2018-07-22T01:54:33.139Z,19.74
2018-07-22T01:55:33.237Z,19.71
2018-07-22T01:56:33.123Z,19.70
2018-07-22T01:57:33.098Z,19.66
2018-07-22T01:58:33.085Z,19.71
2018-07-22T01:59:33.075Z,19.70
2018-07-22T02:00:33.056Z,19.60
2018-07-22T02:01:33.053Z,19.77
2018-07-22T02:02:33.029Z,19.67
2018-07-22T02:03:33.014Z,19.63
2018-07-22T02:04:33.001Z,19.63
2018-07-22T02:05:32.987Z,19.66
2018-07-22T02:06:32.975Z,19.56
2018-07-22T02:07:32.959Z,19.60
2018-07-22T02:08:32.946Z,19.57
2018-07-22T02:09:32.930Z,19.70
2018-07-22T02:10:32.921Z,19.71
2018-07-22T02:11:32.901Z,19.53
2018-07-22T02:12:32.889Z,19.67
2018-07-22T02:13:32.876Z,19.70
2018-07-22T02:14:32.862Z,19.64
2018-07-22T02:15:32.856Z,19.57
2018-07-22T02:16:32.842Z,19.53
2018-07-22T02:17:32.822Z,19.52
2018-07-22T02:18:32.807Z,19.52
2018-07-22T02:19:32.792Z,19.52
2018-07-22T02:20:32.781Z,19.52
2018-07-22T02:21:32.772Z,19.47
2018-07-22T02:22:32.754Z,19.49
2018-07-22T02:23:32.745Z,19.39
2018-07-22T02:24:32.727Z,19.42
2018-07-22T02:25:32.792Z,19.42
2018-07-22T02:26:32.697Z,19.49
2018-07-22T02:27:32.685Z,19.52
2018-07-22T02:28:32.672Z,19.49
2018-07-22T02:29:32.664Z,19.56
2018-07-22T02:30:32.643Z,19.56
2018-07-22T02:31:32.629Z,19.48
2018-07-22T02:32:32.630Z,19.49
2018-07-22T02:33:32.604Z,19.38
2018-07-22T02:34:32.597Z,19.41
2018-07-22T02:35:32.572Z,19.38
2018-07-22T02:36:32.567Z,19.41
2018-07-22T02:37:32.546Z,19.42
2018-07-22T02:38:32.535Z,19.56
2018-07-22T02:39:32.524Z,19.48
2018-07-22T02:40:32.506Z,19.53
2018-07-22T02:41:32.503Z,19.45
2018-07-22T02:42:32.478Z,19.44
2018-07-22T02:43:32.470Z,19.41
2018-07-22T02:44:32.495Z,19.42
2018-07-22T02:45:32.441Z,19.29
2018-07-22T02:46:32.426Z,19.47
2018-07-22T02:47:32.410Z,19.41
2018-07-22T02:48:32.401Z,19.45
2018-07-22T02:49:32.385Z,19.44
2018-07-22T02:50:32.381Z,19.47
2018-07-22T02:51:32.408Z,19.42
2018-07-22T02:52:32.345Z,19.45
2018-07-22T02:53:32.330Z,19.35
2018-07-22T02:54:32.314Z,19.32
2018-07-22T02:55:32.299Z,19.42
2018-07-22T02:56:32.291Z,19.48
2018-07-22T02:57:32.273Z,19.52
2018-07-22T02:58:32.260Z,19.49
2018-07-22T02:59:32.244Z,19.48
2018-07-22T03:00:32.231Z,19.53
2018-07-22T03:01:32.228Z,19.52
2018-07-22T03:02:32.205Z,19.42
2018-07-22T03:03:32.186Z,19.30
2018-07-22T03:04:32.176Z,19.37
2018-07-22T03:05:32.300Z,19.39
2018-07-22T03:06:32.150Z,19.34
2018-07-22T03:07:32.137Z,19.41
2018-07-22T03:08:32.122Z,19.47
2018-07-22T03:09:32.107Z,19.49
2018-07-22T03:10:32.097Z,19.48
2018-07-22T03:11:32.085Z,19.52
2018-07-22T03:12:32.064Z,19.45
2018-07-22T03:13:32.059Z,19.48
2018-07-22T03:14:32.037Z,19.45
2018-07-22T03:15:32.024Z,19.56
2018-07-22T03:16:32.008Z,19.48
2018-07-22T03:17:31.994Z,19.49
2018-07-22T03:18:31.981Z,19.55
2018-07-22T03:19:31.967Z,19.42
2018-07-22T03:20:31.952Z,19.42
2018-07-22T03:21:31.942Z,19.35
2018-07-22T03:22:31.926Z,19.27
2018-07-22T03:23:31.910Z,19.20
2018-07-22T03:24:31.898Z,19.19
2018-07-22T03:25:31.884Z,19.19
2018-07-22T03:26:31.868Z,19.19
2018-07-22T03:27:31.858Z,19.15
2018-07-22T03:28:31.845Z,19.11
2018-07-22T03:29:31.827Z,19.15
2018-07-22T03:30:31.828Z,19.11
2018-07-22T03:31:31.798Z,19.15
2018-07-22T03:32:31.787Z,19.12
2018-07-22T03:33:31.773Z,19.16
2018-07-22T03:34:31.758Z,19.17
2018-07-22T03:35:31.747Z,19.16
2018-07-22T03:36:31.734Z,19.08
2018-07-22T03:37:31.757Z,19.00
2018-07-22T03:38:31.715Z,18.96
2018-07-22T03:39:31.688Z,18.88
2018-07-22T03:40:31.674Z,18.91
2018-07-22T03:41:31.661Z,18.86
2018-07-22T03:42:31.655Z,18.85
2018-07-22T03:43:31.637Z,18.88
2018-07-22T03:44:31.620Z,18.88
2018-07-22T03:45:31.604Z,18.89
2018-07-22T03:46:31.593Z,18.86
2018-07-22T03:47:31.649Z,18.89
2018-07-22T03:48:31.565Z,18.85
2018-07-22T03:49:31.547Z,18.86
2018-07-22T03:50:31.535Z,18.88
2018-07-22T03:51:31.519Z,18.89
2018-07-22T03:52:31.512Z,18.88
2018-07-22T03:53:31.496Z,18.83
2018-07-22T03:54:31.479Z,18.88
2018-07-22T03:55:31.463Z,18.85
2018-07-22T03:56:31.449Z,18.82
2018-07-22T03:57:31.437Z,18.88
2018-07-22T03:58:31.426Z,18.86
2018-07-22T03:59:31.407Z,18.85
2018-07-22T04:00:31.395Z,19.01
2018-07-22T04:01:31.378Z,18.98
2018-07-22T04:02:31.373Z,19.05
2018-07-22T04:03:31.352Z,19.09
2018-07-22T04:04:31.338Z,19.15
2018-07-22T04:05:31.324Z,19.08
2018-07-22T04:06:31.319Z,18.97
2018-07-22T04:07:31.295Z,18.97
2018-07-22T04:08:31.283Z,18.91
2018-07-22T04:09:31.269Z,18.89
2018-07-22T04:10:31.256Z,18.96
2018-07-22T04:11:31.251Z,18.89
2018-07-22T04:12:31.234Z,18.89
2018-07-22T04:13:31.212Z,18.86
2018-07-22T04:14:31.207Z,18.89
2018-07-22T04:15:31.184Z,18.98
2018-07-22T04:16:31.171Z,18.97
2018-07-22T04:17:31.155Z,18.92
2018-07-22T04:18:31.142Z,18.91
2018-07-22T04:19:31.132Z,18.89
2018-07-22T04:20:31.114Z,18.83
2018-07-22T04:21:31.142Z,18.97
2018-07-22T04:22:31.085Z,18.85
2018-07-22T04:23:31.080Z,18.85
2018-07-22T04:24:31.057Z,18.85
2018-07-22T04:25:31.045Z,18.94
2018-07-22T04:26:31.029Z,19.01
2018-07-22T04:27:31.024Z,19.00
2018-07-22T04:28:31.001Z,19.09
2018-07-22T04:29:30.988Z,18.97
2018-07-22T04:30:30.974Z,18.96
2018-07-22T04:31:30.959Z,18.86
2018-07-22T04:32:30.946Z,19.01
2018-07-22T04:33:30.932Z,18.97
2018-07-22T04:34:30.916Z,19.01
2018-07-22T04:35:30.903Z,18.98
2018-07-22T04:36:30.890Z,19.11
2018-07-22T04:37:30.874Z,18.98
2018-07-22T04:38:30.862Z,19.08
2018-07-22T04:39:30.847Z,18.89
2018-07-22T04:40:30.835Z,19.07
2018-07-22T04:41:30.821Z,18.96
2018-07-22T04:42:30.805Z,18.97
2018-07-22T04:43:30.802Z,19.04
2018-07-22T04:44:30.778Z,18.97
2018-07-22T04:45:30.765Z,18.96
2018-07-22T04:46:30.751Z,18.88
2018-07-22T04:47:30.743Z,18.83
2018-07-22T04:48:30.721Z,19.00
2018-07-22T04:49:30.712Z,18.91
2018-07-22T04:50:30.696Z,18.91
2018-07-22T04:51:30.690Z,19.07
2018-07-22T04:52:30.668Z,18.92
2018-07-22T04:53:30.675Z,19.00
2018-07-22T04:54:30.648Z,18.98
2018-07-22T04:55:30.625Z,19.08
2018-07-22T04:56:30.612Z,19.19
2018-07-22T04:57:30.601Z,19.15
2018-07-22T04:58:30.585Z,19.04
2018-07-22T04:59:30.575Z,19.04
2018-07-22T05:00:30.558Z,19.00
2018-07-22T05:01:30.547Z,19.17
2018-07-22T05:02:30.530Z,19.17
2018-07-22T05:03:30.639Z,19.20
2018-07-22T05:04:30.504Z,19.09
2018-07-22T05:05:30.489Z,19.15
2018-07-22T05:06:30.475Z,19.12
2018-07-22T05:07:30.461Z,19.17
2018-07-22T05:08:30.446Z,19.15
2018-07-22T05:09:30.434Z,19.20
2018-07-22T05:10:30.424Z,19.26
2018-07-22T05:11:30.407Z,19.20
2018-07-22T05:12:30.403Z,19.27
2018-07-22T05:13:30.379Z,19.22
2018-07-22T05:14:30.367Z,19.27
2018-07-22T05:15:30.354Z,19.24
2018-07-22T05:16:30.339Z,19.29
2018-07-22T05:17:30.328Z,19.37
2018-07-22T05:18:30.320Z,19.26
2018-07-22T05:19:30.297Z,19.32
2018-07-22T05:20:30.283Z,19.30
2018-07-22T05:21:30.270Z,19.35
2018-07-22T05:22:30.360Z,19.29
2018-07-22T05:23:30.250Z,19.34
2018-07-22T05:24:30.231Z,19.34
2018-07-22T05:25:30.217Z,19.41
2018-07-22T05:26:30.202Z,19.45
2018-07-22T05:27:30.188Z,19.41
2018-07-22T05:28:30.177Z,19.41
2018-07-22T05:29:30.165Z,19.44
2018-07-22T05:30:30.149Z,19.45
2018-07-22T05:31:30.136Z,19.39
2018-07-22T05:32:30.141Z,19.53
2018-07-22T05:33:30.111Z,19.57
2018-07-22T05:34:30.096Z,19.59
2018-07-22T05:35:30.083Z,19.55
2018-07-22T05:36:30.071Z,19.71
2018-07-22T05:37:30.057Z,19.67
2018-07-22T05:38:30.044Z,19.75
2018-07-22T05:39:30.037Z,19.92
2018-07-22T05:40:30.018Z,20.42
2018-07-22T05:41:30.006Z,21.14
2018-07-22T05:42:29.992Z,21.74
2018-07-22T05:43:29.987Z,21.97
2018-07-22T05:44:29.967Z,22.23
2018-07-22T05:45:29.952Z,22.25
2018-07-22T05:46:29.941Z,22.46
2018-07-22T05:47:29.926Z,22.76
2018-07-22T05:48:29.914Z,22.63
2018-07-22T05:49:29.908Z,22.67
2018-07-22T05:50:29.890Z,22.91
2018-07-22T05:51:29.890Z,23.16
2018-07-22T05:52:29.874Z,23.36
2018-07-22T05:53:29.858Z,23.36
2018-07-22T05:54:29.845Z,23.63
2018-07-22T05:55:29.832Z,23.56
2018-07-22T05:56:29.822Z,23.70
2018-07-22T05:57:29.822Z,23.82
2018-07-22T05:58:29.802Z,24.00
2018-07-22T05:59:29.799Z,24.11
2018-07-22T06:00:29.783Z,24.55
2018-07-22T06:01:29.782Z,24.41
2018-07-22T06:02:29.762Z,23.94
2018-07-22T06:03:29.751Z,23.76
2018-07-22T06:04:29.760Z,23.73
2018-07-22T06:05:29.735Z,23.86
2018-07-22T06:06:29.728Z,23.52
2018-07-22T06:07:29.717Z,23.82
2018-07-22T06:08:29.720Z,24.16
2018-07-22T06:09:29.712Z,24.40
2018-07-22T06:10:29.691Z,24.40
2018-07-22T06:11:29.689Z,24.18
2018-07-22T06:12:29.725Z,24.59
2018-07-22T06:13:29.668Z,24.88
2018-07-22T06:14:29.661Z,24.66
2018-07-22T06:15:29.656Z,25.18
2018-07-22T06:16:29.654Z,25.19
2018-07-22T06:17:29.646Z,25.16
2018-07-22T06:18:29.631Z,25.48
2018-07-22T06:19:29.629Z,26.19
2018-07-22T06:20:29.616Z,26.73
2018-07-22T06:21:29.612Z,26.81
2018-07-22T06:22:29.614Z,26.89
2018-07-22T06:23:29.695Z,27.44
2018-07-22T06:24:29.602Z,27.55
2018-07-22T06:25:29.590Z,27.57
2018-07-22T06:26:29.580Z,27.44
2018-07-22T06:27:29.572Z,27.40
2018-07-22T06:28:29.568Z,27.47
2018-07-22T06:29:29.566Z,28.12
2018-07-22T06:30:29.561Z,28.18
2018-07-22T06:31:29.552Z,28.04
2018-07-22T06:32:29.562Z,28.08
2018-07-22T06:33:29.542Z,26.89
2018-07-22T06:34:29.540Z,25.52
2018-07-22T06:35:29.532Z,25.34
2018-07-22T06:36:29.535Z,25.33
2018-07-22T06:37:29.532Z,25.49
2018-07-22T06:38:29.521Z,25.34
2018-07-22T06:39:29.516Z,25.31
2018-07-22T06:40:29.511Z,25.52
2018-07-22T06:41:29.509Z,25.51
2018-07-22T06:42:29.514Z,25.78
2018-07-22T06:43:29.498Z,26.07
2018-07-22T06:44:29.497Z,25.89
2018-07-22T06:45:29.497Z,26.26
2018-07-22T06:46:29.508Z,26.73
2018-07-22T06:47:29.486Z,27.05
2018-07-22T06:48:29.484Z,27.08
2018-07-22T06:49:29.482Z,26.59
2018-07-22T06:50:29.479Z,26.98
2018-07-22T06:51:29.476Z,27.33
2018-07-22T06:52:29.492Z,27.35
2018-07-22T06:53:29.488Z,27.05
2018-07-22T06:54:29.476Z,26.88
2018-07-22T06:55:29.516Z,26.82
2018-07-22T06:56:29.463Z,26.76
2018-07-22T06:57:29.463Z,27.37
2018-07-22T06:58:29.463Z,27.26
2018-07-22T06:59:29.457Z,27.10
2018-07-22T07:00:29.455Z,26.82
2018-07-22T07:01:29.456Z,26.82
2018-07-22T07:02:29.454Z,27.03
2018-07-22T07:03:29.452Z,26.55
2018-07-22T07:04:29.457Z,26.55
2018-07-22T07:05:29.448Z,26.19
2018-07-22T07:06:29.451Z,26.22
2018-07-22T07:07:29.444Z,26.22
2018-07-22T07:08:29.471Z,25.89
2018-07-22T07:09:29.442Z,25.37
2018-07-22T07:10:29.485Z,24.68
2018-07-22T07:11:29.438Z,24.65
2018-07-22T07:12:29.443Z,24.99
2018-07-22T07:13:29.436Z,25.24
2018-07-22T07:14:29.438Z,25.48
2018-07-22T07:15:29.441Z,25.30
2018-07-22T07:16:29.446Z,24.85
2018-07-22T07:17:29.431Z,24.71
2018-07-22T07:18:29.438Z,24.74
2018-07-22T07:19:29.434Z,24.65
2018-07-22T07:20:29.428Z,24.03
2018-07-22T07:21:29.424Z,23.86
2018-07-22T07:22:29.424Z,24.04
2018-07-22T07:23:29.420Z,24.09
2018-07-22T07:24:29.422Z,24.78
2018-07-22T07:25:29.415Z,25.29
2018-07-22T07:26:29.469Z,25.40
2018-07-22T07:27:29.416Z,25.68
2018-07-22T07:28:29.428Z,25.51
2018-07-22T07:29:29.409Z,25.61
2018-07-22T07:30:29.411Z,25.41
2018-07-22T07:31:29.406Z,24.86
2018-07-22T07:32:29.401Z,24.11
2018-07-22T07:33:29.414Z,23.84
2018-07-22T07:34:29.398Z,23.79
2018-07-22T07:35:29.395Z,23.66
2018-07-22T07:36:29.395Z,23.79
2018-07-22T07:37:29.394Z,24.38
2018-07-22T07:38:29.389Z,24.62
2018-07-22T07:39:29.542Z,24.37
2018-07-22T07:40:29.385Z,24.19
2018-07-22T07:41:29.379Z,23.85
2018-07-22T07:42:29.381Z,23.37
2018-07-22T07:43:29.371Z,23.29
2018-07-22T07:44:29.366Z,23.42
2018-07-22T07:45:29.370Z,23.69
2018-07-22T07:46:29.358Z,23.76
2018-07-22T07:47:29.355Z,23.77
2018-07-22T07:48:29.350Z,23.89
2018-07-22T07:49:29.346Z,24.29
2018-07-22T07:50:29.345Z,24.66
2018-07-22T07:51:29.337Z,25.21
2018-07-22T07:52:29.330Z,25.83
2018-07-22T07:53:29.394Z,26.16
2018-07-22T07:54:29.320Z,26.42
2018-07-22T07:55:29.316Z,26.53
2018-07-22T07:56:29.309Z,26.66
2018-07-22T07:57:29.311Z,26.73
2018-07-22T07:58:29.310Z,26.37
2018-07-22T07:59:29.294Z,26.11
2018-07-22T08:00:29.295Z,25.76
2018-07-22T08:01:29.283Z,25.31
2018-07-22T08:02:29.277Z,24.99
2018-07-22T08:03:29.271Z,24.93
2018-07-22T08:04:29.274Z,25.25
2018-07-22T08:05:29.310Z,25.43
2018-07-22T08:06:29.258Z,25.43
2018-07-22T08:07:29.248Z,25.46
2018-07-22T08:08:29.248Z,25.48
2018-07-22T08:09:29.239Z,25.76
2018-07-22T08:10:29.333Z,25.98
2018-07-22T08:11:29.230Z,26.19
2018-07-22T08:12:29.222Z,26.26
2018-07-22T08:13:29.219Z,26.15
2018-07-22T08:14:29.211Z,25.63
2018-07-22T08:15:29.206Z,25.63
2018-07-22T08:16:29.199Z,25.44
2018-07-22T08:17:29.203Z,25.39
2018-07-22T08:18:29.190Z,25.37
2018-07-22T08:19:29.191Z,25.25
2018-07-22T08:20:29.180Z,25.76
2018-07-22T08:21:29.188Z,25.92
2018-07-22T08:22:29.165Z,26.24
2018-07-22T08:23:29.163Z,26.34
2018-07-22T08:24:29.154Z,26.42
2018-07-22T08:25:29.148Z,26.53
2018-07-22T08:26:29.158Z,26.49
2018-07-22T08:27:29.136Z,26.64
2018-07-22T08:28:29.130Z,26.63
2018-07-22T08:29:29.122Z,26.61
2018-07-22T08:30:29.147Z,26.64
2018-07-22T08:31:29.109Z,26.56
2018-07-22T08:32:29.110Z,26.48
2018-07-22T08:33:29.096Z,26.42
2018-07-22T08:34:29.096Z,26.27
2018-07-22T08:35:29.083Z,26.46
2018-07-22T08:36:29.074Z,26.53
2018-07-22T08:37:29.087Z,26.64
2018-07-22T08:38:29.063Z,26.63
2018-07-22T08:39:29.053Z,26.60
2018-07-22T08:40:29.046Z,26.71
2018-07-22T08:41:29.082Z,26.67
2018-07-22T08:42:29.032Z,26.55
2018-07-22T08:43:29.024Z,26.39
2018-07-22T08:44:29.016Z,26.34
2018-07-22T08:45:29.011Z,26.51
2018-07-22T08:46:29.004Z,26.55
2018-07-22T08:47:28.995Z,26.66
2018-07-22T08:48:28.988Z,26.81
2018-07-22T08:49:28.980Z,26.85
2018-07-22T08:50:28.973Z,27.01
2018-07-22T08:51:28.970Z,26.82
2018-07-22T08:52:28.974Z,27.10
2018-07-22T08:53:28.962Z,27.13
2018-07-22T08:54:28.948Z,27.20
2018-07-22T08:55:28.944Z,27.05
2018-07-22T08:56:28.931Z,27.08
2018-07-22T08:57:28.929Z,27.01
2018-07-22T08:58:28.967Z,26.82
2018-07-22T08:59:28.908Z,26.81
2018-07-22T09:00:28.906Z,26.79
2018-07-22T09:01:28.894Z,26.74
2018-07-22T09:02:28.888Z,26.98
2018-07-22T09:03:28.939Z,27.04
2018-07-22T09:04:28.875Z,27.18
2018-07-22T09:05:28.910Z,27.22
2018-07-22T09:06:28.859Z,27.16
2018-07-22T09:07:28.859Z,27.20
2018-07-22T09:08:28.851Z,27.25
2018-07-22T09:09:28.837Z,27.50
2018-07-22T09:10:28.830Z,27.33
2018-07-22T09:11:28.821Z,27.47
2018-07-22T09:12:28.815Z,27.60
2018-07-22T09:13:28.812Z,27.73
2018-07-22T09:14:28.809Z,27.93
2018-07-22T09:15:28.796Z,27.90
2018-07-22T09:16:28.803Z,28.18
2018-07-22T09:17:28.780Z,28.20
2018-07-22T09:18:28.773Z,28.12
2018-07-22T09:19:28.776Z,28.41
2018-07-22T09:20:28.776Z,28.56
2018-07-22T09:21:28.755Z,28.55
2018-07-22T09:22:28.754Z,28.59
2018-07-22T09:23:28.737Z,28.67
2018-07-22T09:24:28.736Z,28.50
2018-07-22T09:25:28.727Z,28.67
2018-07-22T09:26:28.748Z,28.75
2018-07-22T09:27:28.725Z,28.92
2018-07-22T09:28:28.704Z,29.06
2018-07-22T09:29:28.700Z,28.94
2018-07-22T09:30:28.692Z,29.10
2018-07-22T09:31:28.684Z,29.02
2018-07-22T09:32:28.677Z,28.94
2018-07-22T09:33:28.679Z,29.18
2018-07-22T09:34:28.675Z,29.05
2018-07-22T09:35:28.658Z,28.93
2018-07-22T09:36:28.685Z,28.64
2018-07-22T09:37:28.664Z,28.65
2018-07-22T09:38:28.648Z,28.57
2018-07-22T09:39:28.643Z,28.83
2018-07-22T09:40:28.628Z,28.94
2018-07-22T09:41:28.635Z,29.06
2018-07-22T09:42:28.619Z,29.27
2018-07-22T09:43:28.611Z,29.44
2018-07-22T09:44:28.612Z,29.53
2018-07-22T09:45:28.600Z,29.73
2018-07-22T09:46:28.595Z,29.59
2018-07-22T09:47:28.598Z,29.87
2018-07-22T09:48:28.593Z,30.18
2018-07-22T09:49:28.582Z,30.20
2018-07-22T09:50:28.575Z,30.49
2018-07-22T09:51:28.571Z,30.71
2018-07-22T09:52:28.572Z,30.78
2018-07-22T09:53:28.574Z,31.05
2018-07-22T09:54:28.563Z,31.33
2018-07-22T09:55:28.552Z,31.54
2018-07-22T09:56:28.547Z,31.64
2018-07-22T09:57:28.542Z,31.73
2018-07-22T09:58:28.573Z,31.90
2018-07-22T09:59:28.557Z,32.05
2018-07-22T10:00:28.529Z,32.09
2018-07-22T10:01:28.523Z,32.31
2018-07-22T10:02:28.523Z,32.61
2018-07-22T10:03:28.518Z,32.90
2018-07-22T10:04:28.527Z,32.95
2018-07-22T10:05:28.510Z,33.19
2018-07-22T10:06:28.533Z,33.01
2018-07-22T10:07:28.516Z,32.75
2018-07-22T10:08:28.498Z,32.79
2018-07-22T10:09:28.546Z,32.78
2018-07-22T10:10:28.495Z,32.98
2018-07-22T10:11:28.487Z,33.05
2018-07-22T10:12:28.484Z,33.16
2018-07-22T10:13:28.491Z,33.15
2018-07-22T10:14:28.500Z,33.16
2018-07-22T10:15:28.478Z,33.28
2018-07-22T10:16:28.484Z,33.26
2018-07-22T10:17:28.519Z,33.47
2018-07-22T10:18:28.475Z,33.70
2018-07-22T10:19:28.612Z,33.97
2018-07-22T10:20:28.488Z,34.10
2018-07-22T10:21:28.477Z,34.06
2018-07-22T10:22:28.483Z,34.43
2018-07-22T10:23:28.498Z,34.06
2018-07-22T10:24:28.484Z,34.13
2018-07-22T10:25:28.484Z,34.06
2018-07-22T10:26:28.485Z,34.04
2018-07-22T10:27:28.489Z,33.98
2018-07-22T10:28:28.490Z,34.00
2018-07-22T10:29:28.487Z,34.19
2018-07-22T10:30:28.701Z,34.25
2018-07-22T10:31:28.493Z,34.03
2018-07-22T10:32:28.496Z,33.97
2018-07-22T10:33:28.506Z,34.10
2018-07-22T10:34:28.504Z,33.87
2018-07-22T10:35:28.507Z,33.47
2018-07-22T10:36:28.509Z,33.61
2018-07-22T10:37:28.513Z,34.11
2018-07-22T10:38:28.520Z,34.10
2018-07-22T10:39:28.538Z,34.37
2018-07-22T10:40:28.529Z,34.43
2018-07-22T10:41:28.546Z,34.50
2018-07-22T10:42:28.538Z,34.53
2018-07-22T10:43:28.541Z,34.55
2018-07-22T10:44:28.558Z,34.60
2018-07-22T10:45:28.582Z,34.03
2018-07-22T10:46:28.558Z,34.04
2018-07-22T10:47:28.564Z,34.13
2018-07-22T10:48:28.570Z,34.35
2018-07-22T10:49:28.577Z,33.94
2018-07-22T10:50:28.590Z,33.82
2018-07-22T10:51:28.590Z,34.09
2018-07-22T10:52:28.598Z,34.40
2018-07-22T10:53:28.611Z,34.66
2018-07-22T10:54:28.607Z,34.86
2018-07-22T10:55:28.613Z,34.98
2018-07-22T10:56:28.616Z,34.97
2018-07-22T10:57:28.652Z,34.63
2018-07-22T10:58:28.632Z,34.76
2018-07-22T10:59:28.644Z,34.50
2018-07-22T11:00:28.643Z,34.31
2018-07-22T11:01:28.653Z,34.22
2018-07-22T11:02:28.669Z,34.31
2018-07-22T11:03:28.661Z,34.35
2018-07-22T11:04:28.682Z,34.25
2018-07-22T11:05:28.676Z,33.70
2018-07-22T11:06:28.686Z,33.33
2018-07-22T11:07:28.686Z,33.17
2018-07-22T11:08:28.690Z,32.38
2018-07-22T11:09:28.704Z,32.07
2018-07-22T11:10:28.702Z,32.44
2018-07-22T11:11:28.711Z,32.73
2018-07-22T11:12:28.717Z,33.10
2018-07-22T11:13:28.738Z,33.16
2018-07-22T11:14:28.774Z,32.75
2018-07-22T11:15:28.722Z,32.60
2018-07-22T11:16:28.736Z,32.01
2018-07-22T11:17:28.740Z,31.74
2018-07-22T11:18:28.753Z,31.51
2018-07-22T11:19:28.751Z,31.20
2018-07-22T11:20:28.758Z,31.05
2018-07-22T11:21:28.744Z,31.41
2018-07-22T11:22:28.747Z,32.12
2018-07-22T11:23:28.755Z,32.44
2018-07-22T11:24:28.752Z,33.15
2018-07-22T11:25:28.752Z,32.72
2018-07-22T11:26:28.767Z,31.78
2018-07-22T11:27:28.753Z,31.11
2018-07-22T11:28:28.760Z,31.48
2018-07-22T11:29:28.763Z,32.02
2018-07-22T11:30:28.762Z,32.78
2018-07-22T11:31:28.772Z,32.51
2018-07-22T11:32:28.766Z,32.98
2018-07-22T11:33:28.775Z,32.97
2018-07-22T11:34:28.769Z,33.53
2018-07-22T11:35:28.782Z,33.39
2018-07-22T11:36:28.781Z,33.29
2018-07-22T11:37:28.779Z,33.33
2018-07-22T11:38:28.788Z,33.04
2018-07-22T11:39:28.787Z,33.16
2018-07-22T11:40:28.785Z,33.20
2018-07-22T11:41:28.801Z,32.73
2018-07-22T11:42:28.792Z,32.39
2018-07-22T11:43:28.815Z,32.46
2018-07-22T11:44:28.793Z,31.81
2018-07-22T11:45:28.795Z,31.42
2018-07-22T11:46:28.797Z,31.45
2018-07-22T11:47:28.807Z,31.50
2018-07-22T11:48:28.798Z,31.37
2018-07-22T11:49:28.803Z,31.02
2018-07-22T11:50:28.870Z,30.83
2018-07-22T11:51:28.802Z,30.86
2018-07-22T11:52:28.811Z,31.02
2018-07-22T11:53:28.801Z,30.85
2018-07-22T11:54:28.847Z,31.11
2018-07-22T11:55:29.005Z,30.91
2018-07-22T11:56:28.800Z,30.93
2018-07-22T11:57:28.805Z,30.56
2018-07-22T11:58:28.804Z,30.56
2018-07-22T11:59:28.798Z,30.40
2018-07-22T12:00:28.803Z,30.27
2018-07-22T12:01:28.844Z,30.44
2018-07-22T12:02:28.797Z,30.73
2018-07-22T12:03:28.808Z,30.78
2018-07-22T12:04:28.797Z,30.76
2018-07-22T12:05:28.791Z,30.81
2018-07-22T12:06:28.795Z,30.58
2018-07-22T12:07:28.794Z,30.71
2018-07-22T12:08:28.787Z,30.93
2018-07-22T12:09:28.796Z,30.80
2018-07-22T12:10:28.779Z,30.56
2018-07-22T12:11:28.776Z,30.55
2018-07-22T12:12:28.827Z,30.80
2018-07-22T12:13:28.772Z,31.18
2018-07-22T12:14:28.785Z,31.51
2018-07-22T12:15:28.764Z,31.67
2018-07-22T12:16:28.764Z,31.73
2018-07-22T12:17:28.768Z,31.67
2018-07-22T12:18:28.762Z,31.63
2018-07-22T12:19:28.758Z,31.51
2018-07-22T12:20:28.751Z,31.54
2018-07-22T12:21:28.752Z,31.59
2018-07-22T12:22:28.748Z,31.44
2018-07-22T12:23:28.746Z,31.35
2018-07-22T12:24:28.739Z,31.18
2018-07-22T12:25:28.737Z,31.26
2018-07-22T12:26:28.743Z,31.08
2018-07-22T12:27:28.731Z,30.95
2018-07-22T12:28:29.944Z,30.73
2018-07-22T12:29:28.729Z,30.71
2018-07-22T12:30:28.721Z,30.76
2018-07-22T12:34:01.117Z,30.73
2018-07-22T12:35:01.098Z,30.80
2018-07-22T12:36:01.081Z,30.65
2018-07-22T12:37:01.078Z,30.74
2018-07-22T12:38:01.075Z,30.73
2018-07-22T12:39:01.076Z,30.71
2018-07-22T12:40:01.066Z,30.73
2018-07-22T12:41:01.069Z,30.78
2018-07-22T12:42:01.084Z,30.81
2018-07-22T12:43:01.068Z,30.89
2018-07-22T12:44:01.051Z,30.95
2018-07-22T12:45:01.053Z,30.95
2018-07-22T12:46:01.040Z,30.99
2018-07-22T12:47:01.036Z,31.30
2018-07-22T12:48:01.043Z,31.22
2018-07-22T12:49:01.048Z,31.36
2018-07-22T12:50:01.022Z,31.35
2018-07-22T12:51:01.019Z,31.42
2018-07-22T12:52:01.023Z,31.55
2018-07-22T12:53:01.017Z,31.63
2018-07-22T12:54:01.016Z,31.48
2018-07-22T12:55:01.021Z,31.50